Time;durP1;ratioP1;P1;durP2;ratioP2;P2;SDS_P1;SDS_P2;PMS_P1;PMS_P2;Temp;Humidity;BMP_temperature;BMP_pressure;BME280_temperature;BME280_humidity;BME280_pressure;Samples;Min_cycle;Max_cycle;Signal;HPM_P1;HPM_P2
2022/07/27 00:00:30;;;;;;;3.70;1.10;;;13.60;99.90;;;;;;5030840;28;20041;-69
2022/07/27 00:02:56;;;;;;;4.00;1.00;;;13.60;99.90;;;;;;5042027;28;20052;-69
2022/07/27 00:05:22;;;;;;;11.63;1.52;;;13.50;99.90;;;;;;5032336;28;20047;-70
2022/07/27 00:07:48;;;;;;;5.20;1.55;;;13.50;99.90;;;;;;5029655;28;20364;-69
2022/07/27 00:10:16;;;;;;;5.18;1.60;;;13.50;99.90;;;;;;5044038;28;20041;-69
2022/07/27 00:12:42;;;;;;;8.55;1.73;;;13.40;99.90;;;;;;5048079;28;20040;-69
2022/07/27 00:15:08;;;;;;;7.65;2.70;;;13.40;99.90;;;;;;5065969;28;20148;-69
2022/07/27 00:17:34;;;;;;;4.25;1.73;;;13.40;99.90;;;;;;5050286;28;20056;-69
2022/07/27 00:20:00;;;;;;;4.72;1.35;;;13.40;99.90;;;;;;5034527;28;20122;-69
2022/07/27 00:22:26;;;;;;;5.78;1.25;;;13.40;99.90;;;;;;5033727;28;20052;-69
2022/07/27 00:24:55;;;;;;;9.27;1.50;;;13.50;99.90;;;;;;5052496;28;20067;-69
2022/07/27 00:27:20;;;;;;;6.40;3.17;;;13.50;99.90;;;;;;5029972;28;20399;-69
2022/07/27 00:29:46;;;;;;;8.73;3.45;;;13.50;99.90;;;;;;5025469;28;20044;-69
2022/07/27 00:32:12;;;;;;;9.52;3.88;;;13.50;99.90;;;;;;5047547;28;20538;-69
2022/07/27 00:34:37;;;;;;;12.57;4.25;;;13.50;99.90;;;;;;5049690;28;20048;-69
2022/07/27 00:37:04;;;;;;;15.13;4.03;;;13.50;99.90;;;;;;5046529;28;20502;-69
2022/07/27 00:39:29;;;;;;;8.95;3.75;;;13.40;99.90;;;;;;5030361;28;20137;-69
2022/07/27 00:41:55;;;;;;;8.45;3.83;;;13.40;99.90;;;;;;5042264;28;20128;-69
2022/07/27 00:44:29;;;;;;;10.07;4.32;;;13.40;99.90;;;;;;5029811;28;20486;-69
2022/07/27 00:46:56;;;;;;;14.27;5.38;;;13.40;99.90;;;;;;5028968;28;20462;-69
2022/07/27 00:49:22;;;;;;;8.35;4.65;;;13.30;99.90;;;;;;5028695;28;20045;-69
2022/07/27 00:51:48;;;;;;;19.38;6.47;;;13.30;99.90;;;;;;5029458;28;20049;-69
2022/07/27 00:54:15;;;;;;;18.70;6.85;;;13.20;99.90;;;;;;5027947;28;20045;-69
2022/07/27 00:56:42;;;;;;;10.68;5.97;;;13.20;99.90;;;;;;5051006;28;20087;-68
2022/07/27 00:59:09;;;;;;;14.85;6.43;;;13.20;99.90;;;;;;5040882;28;20084;-69
2022/07/27 01:01:35;;;;;;;12.48;7.15;;;13.20;99.90;;;;;;5016223;28;20053;-69
2022/07/27 01:04:01;;;;;;;12.02;7.10;;;13.20;99.90;;;;;;5048306;28;20544;-69
2022/07/27 01:06:27;;;;;;;11.95;5.60;;;13.10;99.90;;;;;;5032176;28;20067;-69
2022/07/27 01:09:55;;;;;;;10.40;3.40;;;13.10;99.90;;;;;;5038065;28;20037;-69
2022/07/27 01:11:48;;;;;;;8.07;2.53;;;13.20;99.90;;;;;;5027851;28;20059;-69
2022/07/27 01:14:15;;;;;;;12.77;2.30;;;13.10;99.90;;;;;;5047613;28;20416;-69
2022/07/27 01:16:41;;;;;;;7.22;1.77;;;13.10;99.90;;;;;;5046662;28;20052;-69
2022/07/27 01:19:11;;;;;;;9.77;1.85;;;13.10;99.90;;;;;;5049465;28;20131;-69
2022/07/27 01:21:37;;;;;;;7.43;1.30;;;13.00;99.90;;;;;;5021209;28;20098;-70
2022/07/27 01:24:03;;;;;;;9.15;1.80;;;12.90;99.90;;;;;;5048047;28;20106;-70
2022/07/27 01:26:29;;;;;;;5.35;1.20;;;12.90;99.90;;;;;;5059687;28;20070;-69
2022/07/27 01:28:57;;;;;;;7.22;1.50;;;12.80;99.90;;;;;;5045385;28;20095;-69
2022/07/27 01:31:23;;;;;;;4.88;1.83;;;12.80;99.90;;;;;;5042941;28;20076;-68
2022/07/27 01:33:48;;;;;;;4.22;1.38;;;12.70;99.90;;;;;;5027158;28;20091;-69
2022/07/27 01:36:14;;;;;;;8.70;2.63;;;12.70;99.90;;;;;;5029220;28;20049;-69
2022/07/27 01:38:40;;;;;;;7.97;2.53;;;12.70;99.90;;;;;;5046351;28;20074;-69
2022/07/27 01:41:05;;;;;;;5.43;2.40;;;12.70;99.90;;;;;;5042159;28;20096;-69
2022/07/27 01:43:31;;;;;;;5.60;1.83;;;12.70;99.90;;;;;;5035146;28;20057;-69
2022/07/27 01:45:58;;;;;;;6.35;2.22;;;12.70;99.90;;;;;;5047027;28;20433;-69
2022/07/27 01:48:24;;;;;;;7.78;2.78;;;12.70;99.90;;;;;;5049149;28;20506;-69
2022/07/27 01:50:51;;;;;;;15.05;3.50;;;12.70;99.90;;;;;;5059001;28;20037;-69
2022/07/27 01:53:18;;;;;;;9.88;3.33;;;12.70;99.90;;;;;;5035831;28;20120;-69
2022/07/27 01:55:44;;;;;;;12.50;5.13;;;12.70;99.90;;;;;;5026667;28;20059;-69
2022/07/27 01:58:11;;;;;;;14.57;6.00;;;12.70;99.90;;;;;;5028628;28;20049;-69
2022/07/27 02:00:37;;;;;;;12.32;5.97;;;12.80;99.90;;;;;;5062010;28;20146;-69
2022/07/27 02:03:05;;;;;;;15.00;7.13;;;12.80;99.90;;;;;;5018505;28;20465;-69
2022/07/27 02:05:31;;;;;;;16.40;7.93;;;12.80;99.90;;;;;;5032765;28;20040;-69
2022/07/27 02:07:56;;;;;;;15.38;7.53;;;12.90;99.90;;;;;;5044685;28;20106;-69
2022/07/27 02:10:22;;;;;;;21.08;7.82;;;12.90;99.90;;;;;;5032238;28;20045;-69
2022/07/27 02:12:49;;;;;;;14.43;7.13;;;13.00;99.90;;;;;;5036798;28;20059;-69
2022/07/27 02:15:18;;;;;;;18.38;7.15;;;13.00;99.90;;;;;;5032612;28;20490;-69
2022/07/27 02:17:46;;;;;;;15.25;7.32;;;13.10;99.90;;;;;;5045918;28;20597;-69
2022/07/27 02:20:15;;;;;;;10.60;3.97;;;13.20;99.90;;;;;;5046102;28;20049;-69
2022/07/27 02:22:42;;;;;;;14.20;3.92;;;13.20;99.90;;;;;;5045093;28;20091;-69
2022/07/27 02:25:09;;;;;;;10.38;3.08;;;13.30;99.90;;;;;;5033571;28;20052;-69
2022/07/27 02:27:35;;;;;;;9.60;2.47;;;13.30;99.90;;;;;;5059894;28;20119;-69
2022/07/27 02:30:01;;;;;;;8.75;2.60;;;13.30;99.90;;;;;;5048275;28;20137;-69
2022/07/27 02:32:27;;;;;;;10.98;3.08;;;13.30;99.90;;;;;;5034000;28;20383;-69
2022/07/27 02:34:53;;;;;;;7.43;1.35;;;13.40;99.90;;;;;;5029444;28;20075;-69
2022/07/27 02:37:18;;;;;;;9.57;1.80;;;13.40;99.90;;;;;;5049874;28;20045;-69
2022/07/27 02:39:44;;;;;;;5.10;1.48;;;13.40;99.90;;;;;;5032522;28;20099;-69
2022/07/27 02:42:10;;;;;;;12.27;2.00;;;13.40;99.90;;;;;;5030338;28;20373;-68
2022/07/27 02:44:35;;;;;;;3.25;1.33;;;13.40;99.90;;;;;;5041187;28;20375;-69
2022/07/27 02:47:01;;;;;;;8.52;2.97;;;13.40;99.90;;;;;;5033734;28;20076;-69
2022/07/27 02:49:27;;;;;;;8.60;1.90;;;13.40;99.90;;;;;;5032337;28;20857;-69
2022/07/27 02:51:53;;;;;;;7.28;2.13;;;13.30;99.90;;;;;;5030304;28;20049;-69
2022/07/27 02:54:20;;;;;;;6.35;2.28;;;13.30;99.90;;;;;;5032838;28;20080;-68
2022/07/27 02:56:47;;;;;;;7.55;2.17;;;13.20;99.90;;;;;;5038548;28;20057;-69
2022/07/27 02:59:13;;;;;;;10.57;3.20;;;13.20;99.90;;;;;;5030293;28;20085;-68
2022/07/27 03:01:39;;;;;;;8.63;2.63;;;13.20;99.90;;;;;;5053503;28;20870;-68
2022/07/27 03:04:05;;;;;;;8.02;1.88;;;13.20;99.90;;;;;;5032746;28;20037;-68
2022/07/27 03:06:31;;;;;;;4.20;1.95;;;13.10;99.90;;;;;;5048551;28;20496;-69
2022/07/27 03:08:56;;;;;;;8.80;1.50;;;13.10;99.90;;;;;;5053456;28;20475;-68
2022/07/27 03:11:22;;;;;;;7.25;1.73;;;13.10;99.90;;;;;;5048341;28;20131;-69
2022/07/27 03:13:48;;;;;;;7.80;2.35;;;13.00;99.90;;;;;;5040490;28;20048;-68
2022/07/27 03:16:14;;;;;;;6.22;2.38;;;12.90;99.90;;;;;;5032004;28;20509;-68
2022/07/27 03:18:39;;;;;;;5.45;1.65;;;12.90;99.90;;;;;;5031769;28;20153;-69
2022/07/27 03:21:05;;;;;;;12.85;2.72;;;12.80;99.90;;;;;;5042842;28;20052;-69
2022/07/27 03:23:31;;;;;;;11.35;2.53;;;12.70;99.90;;;;;;5032205;28;20083;-68
2022/07/27 03:25:57;;;;;;;5.45;2.25;;;12.70;99.90;;;;;;5040903;28;20087;-68
2022/07/27 03:28:23;;;;;;;4.70;2.70;;;12.60;99.90;;;;;;5048217;28;20529;-69
2022/07/27 03:30:48;;;;;;;16.67;3.20;;;12.60;99.90;;;;;;5039367;28;20051;-68
2022/07/27 03:33:14;;;;;;;6.80;3.30;;;12.60;99.90;;;;;;5053236;28;20339;-68
2022/07/27 03:35:40;;;;;;;5.45;1.77;;;12.60;99.90;;;;;;5038087;28;20051;-68
2022/07/27 03:38:05;;;;;;;7.63;1.92;;;12.50;99.90;;;;;;5053734;28;20060;-68
2022/07/27 03:40:32;;;;;;;13.60;2.40;;;12.50;99.90;;;;;;5050495;28;20509;-69
2022/07/27 03:42:58;;;;;;;4.82;1.50;;;12.50;99.90;;;;;;5037549;28;20045;-68
2022/07/27 03:45:25;;;;;;;7.47;1.52;;;12.50;99.90;;;;;;5014816;28;20060;-68
2022/07/27 03:47:50;;;;;;;6.25;1.05;;;12.40;99.90;;;;;;5040549;28;20142;-68
2022/07/27 03:50:18;;;;;;;7.82;1.10;;;12.30;99.90;;;;;;5052828;28;20092;-68
2022/07/27 03:52:44;;;;;;;2.97;0.98;;;12.20;99.90;;;;;;5048081;28;20406;-68
2022/07/27 03:55:09;;;;;;;3.97;1.10;;;12.20;99.90;;;;;;5029726;28;20049;-69
2022/07/27 03:57:36;;;;;;;10.25;1.35;;;12.10;99.90;;;;;;5033749;28;20052;-68
2022/07/27 04:00:03;;;;;;;8.18;1.10;;;12.10;99.90;;;;;;5055123;28;20457;-68
2022/07/27 04:02:29;;;;;;;7.43;1.50;;;12.10;99.90;;;;;;5037334;28;20071;-69
2022/07/27 04:04:55;;;;;;;10.45;1.27;;;12.10;99.90;;;;;;5039594;28;20397;-69
2022/07/27 04:07:20;;;;;;;19.05;2.40;;;12.10;99.90;;;;;;5052311;28;20567;-69
2022/07/27 04:09:46;;;;;;;3.40;1.05;;;12.10;99.90;;;;;;5040448;28;20051;-68
2022/07/27 04:12:12;;;;;;;8.75;1.33;;;12.10;99.90;;;;;;5013393;28;20079;-69
2022/07/27 04:14:37;;;;;;;9.57;2.70;;;12.10;99.90;;;;;;5048279;28;20132;-69
2022/07/27 04:17:03;;;;;;;5.53;3.00;;;12.20;99.90;;;;;;5037220;28;20050;-69
2022/07/27 04:19:29;;;;;;;6.70;1.92;;;12.20;99.90;;;;;;5050494;28;20094;-69
2022/07/27 04:21:56;;;;;;;6.97;1.80;;;12.20;99.90;;;;;;5052833;28;20432;-69
2022/07/27 04:24:22;;;;;;;5.78;1.25;;;12.20;99.90;;;;;;5068316;28;20118;-70
2022/07/27 04:26:47;;;;;;;10.93;2.47;;;12.30;99.90;;;;;;5052324;28;20055;-69
2022/07/27 04:29:13;;;;;;;9.82;1.83;;;12.30;99.90;;;;;;5049555;28;20040;-69
2022/07/27 04:31:39;;;;;;;9.20;2.30;;;12.30;99.90;;;;;;5029480;28;20146;-68
2022/07/27 04:34:05;;;;;;;8.45;1.67;;;12.40;99.90;;;;;;5047204;28;20080;-69
2022/07/27 04:36:30;;;;;;;9.13;1.48;;;12.40;99.90;;;;;;5029973;28;20044;-69
2022/07/27 04:38:56;;;;;;;3.47;1.05;;;12.50;99.90;;;;;;5048058;28;20052;-69
2022/07/27 04:41:22;;;;;;;5.65;1.13;;;12.60;99.90;;;;;;5055337;28;20510;-69
2022/07/27 04:43:48;;;;;;;6.85;1.35;;;12.60;99.90;;;;;;5046117;28;20094;-69
2022/07/27 04:46:14;;;;;;;7.20;1.40;;;12.60;99.90;;;;;;5029656;28;20048;-69
2022/07/27 04:48:40;;;;;;;5.70;1.30;;;12.70;99.90;;;;;;5024472;28;20056;-69
2022/07/27 04:51:06;;;;;;;3.33;1.00;;;12.70;99.90;;;;;;5034803;28;20127;-69
2022/07/27 04:53:32;;;;;;;7.22;1.13;;;12.70;99.90;;;;;;5029380;28;20559;-69
2022/07/27 04:55:58;;;;;;;8.60;1.15;;;12.70;99.90;;;;;;5028405;28;20056;-69
2022/07/27 04:58:23;;;;;;;5.90;1.33;;;12.70;99.90;;;;;;5029462;28;20144;-69
2022/07/27 05:00:49;;;;;;;9.63;1.63;;;12.70;99.90;;;;;;4997980;28;20434;-69
2022/07/27 05:03:15;;;;;;;11.40;5.00;;;12.70;99.90;;;;;;5035851;28;20888;-69
2022/07/27 05:05:40;;;;;;;12.65;3.38;;;12.70;99.90;;;;;;5027838;28;20490;-68
2022/07/27 05:08:06;;;;;;;7.47;3.53;;;12.80;99.90;;;;;;5047289;28;20053;-69
2022/07/27 05:10:32;;;;;;;9.43;3.00;;;12.80;99.90;;;;;;5046473;28;20063;-69
2022/07/27 05:12:58;;;;;;;6.78;2.50;;;12.90;99.90;;;;;;5049427;28;20122;-69
2022/07/27 05:15:23;;;;;;;4.88;1.90;;;13.00;99.90;;;;;;5029216;28;20124;-69
2022/07/27 05:17:51;;;;;;;5.68;1.60;;;13.00;99.90;;;;;;5027804;28;20510;-69
2022/07/27 05:20:16;;;;;;;11.15;2.10;;;13.10;99.90;;;;;;5046957;28;20068;-70
2022/07/27 05:22:42;;;;;;;6.50;2.10;;;13.20;99.90;;;;;;5057671;28;20125;-70
2022/07/27 05:25:09;;;;;;;11.57;2.63;;;13.20;99.90;;;;;;5048106;28;20487;-70
2022/07/27 05:27:36;;;;;;;17.58;5.22;;;13.30;99.90;;;;;;5038809;28;20059;-69
2022/07/27 05:30:04;;;;;;;11.80;2.47;;;13.30;99.90;;;;;;5050008;28;20123;-70
2022/07/27 05:32:30;;;;;;;6.65;1.65;;;13.40;99.90;;;;;;5039061;28;20044;-69
2022/07/27 05:34:55;;;;;;;5.65;1.50;;;13.50;99.90;;;;;;5032231;28;20067;-70
2022/07/27 05:37:21;;;;;;;6.35;1.40;;;13.50;99.90;;;;;;5029192;28;20067;-70
2022/07/27 05:39:47;;;;;;;4.43;1.15;;;13.60;99.90;;;;;;5041008;28;20040;-70
2022/07/27 05:42:15;;;;;;;5.82;1.25;;;13.70;99.90;;;;;;5029230;28;20540;-69
2022/07/27 05:44:40;;;;;;;7.82;1.50;;;13.80;99.90;;;;;;5052394;28;20503;-70
2022/07/27 05:47:06;;;;;;;6.20;1.75;;;13.90;99.90;;;;;;5028436;28;20053;-70
2022/07/27 05:49:32;;;;;;;10.55;2.10;;;13.90;99.90;;;;;;5046141;28;20079;-69
2022/07/27 05:51:58;;;;;;;7.93;1.67;;;14.10;99.90;;;;;;5046236;28;20115;-70
2022/07/27 05:54:24;;;;;;;3.30;1.17;;;14.20;99.90;;;;;;5050466;28;20049;-70
2022/07/27 05:56:49;;;;;;;3.58;1.13;;;14.30;99.90;;;;;;5024156;28;20049;-70
2022/07/27 05:59:15;;;;;;;7.85;1.60;;;14.40;99.90;;;;;;5026577;28;20404;-69
2022/07/27 06:01:41;;;;;;;14.95;1.73;;;14.50;99.90;;;;;;5029149;28;20041;-70
2022/07/27 06:04:06;;;;;;;5.55;1.88;;;14.60;99.90;;;;;;5027811;28;20094;-70
2022/07/27 06:09:16;;;;;;;8.80;1.40;;;14.70;99.90;;;;;;5009560;28;20054;-69
2022/07/27 06:11:42;;;;;;;2.33;1.10;;;14.70;99.90;;;;;;4995921;28;20049;-69
2022/07/27 06:14:08;;;;;;;5.32;0.90;;;14.80;99.90;;;;;;5007138;28;20111;-69
2022/07/27 06:16:34;;;;;;;8.18;1.38;;;14.80;99.90;;;;;;5025003;28;20042;-70
2022/07/27 06:19:00;;;;;;;8.30;1.17;;;14.80;99.90;;;;;;5007014;28;20463;-70
2022/07/27 06:21:27;;;;;;;7.22;1.23;;;14.80;99.90;;;;;;5008870;28;20092;-69
2022/07/27 06:23:56;;;;;;;5.70;1.20;;;14.80;99.90;;;;;;5025795;28;20056;-70
2022/07/27 06:26:22;;;;;;;8.25;1.52;;;14.90;99.90;;;;;;5021813;28;20041;-69
2022/07/27 06:28:48;;;;;;;6.47;1.50;;;15.00;99.90;;;;;;5009019;28;20053;-70
2022/07/27 06:31:14;;;;;;;10.57;1.60;;;15.10;99.90;;;;;;5024846;28;20058;-69
2022/07/27 06:33:40;;;;;;;13.13;1.48;;;15.20;99.90;;;;;;5012449;28;20140;-68
2022/07/27 06:36:07;;;;;;;4.80;1.15;;;15.30;99.90;;;;;;5029603;28;20128;-69
2022/07/27 06:38:33;;;;;;;6.22;1.05;;;15.50;99.90;;;;;;5010093;28;20556;-69
2022/07/27 06:41:00;;;;;;;5.88;0.98;;;15.50;99.90;;;;;;5026361;28;20148;-69
2022/07/27 06:43:31;;;;;;;8.38;1.45;;;15.70;99.90;;;;;;5032306;28;20029;-69
2022/07/27 06:45:57;;;;;;;5.15;0.98;;;15.80;99.90;;;;;;5027155;28;20049;-69
2022/07/27 06:48:23;;;;;;;6.05;1.23;;;15.90;99.90;;;;;;5044609;28;20079;-69
2022/07/27 06:50:49;;;;;;;6.05;1.27;;;16.00;99.90;;;;;;5028787;28;20067;-69
2022/07/27 06:53:16;;;;;;;4.65;1.00;;;16.10;99.90;;;;;;5043737;28;20047;-69
2022/07/27 06:55:42;;;;;;;5.00;1.17;;;16.10;99.90;;;;;;5030792;28;20445;-68
2022/07/27 06:58:07;;;;;;;7.63;1.40;;;16.00;99.90;;;;;;5063820;28;20060;-69
2022/07/27 07:00:34;;;;;;;5.03;1.00;;;15.90;99.90;;;;;;5069151;28;20060;-68
2022/07/27 07:03:02;;;;;;;7.63;1.42;;;15.80;99.90;;;;;;5066210;28;20048;-69
2022/07/27 07:05:30;;;;;;;5.85;1.58;;;15.80;99.90;;;;;;5046759;28;20458;-69
2022/07/27 07:07:56;;;;;;;7.30;1.38;;;15.70;99.90;;;;;;5069639;28;20087;-68
2022/07/27 07:10:24;;;;;;;10.15;1.77;;;15.70;99.90;;;;;;5037226;28;20073;-68
2022/07/27 07:12:54;;;;;;;5.75;1.48;;;15.60;99.90;;;;;;5031394;28;20124;-68
2022/07/27 07:15:25;;;;;;;6.10;1.40;;;15.60;99.90;;;;;;5041691;28;20048;-68
2022/07/27 07:17:52;;;;;;;5.32;1.33;;;15.60;99.90;;;;;;5049452;28;20048;-69
2022/07/27 07:20:18;;;;;;;4.93;1.15;;;15.60;99.90;;;;;;5058765;28;20041;-68
2022/07/27 07:22:43;;;;;;;5.13;1.13;;;15.70;99.90;;;;;;5033129;28;20049;-68
2022/07/27 07:25:09;;;;;;;7.22;1.40;;;16.00;99.90;;;;;;5059849;28;20041;-69
2022/07/27 07:27:35;;;;;;;6.05;1.27;;;16.60;99.90;;;;;;5060940;28;20044;-69
2022/07/27 07:30:01;;;;;;;5.88;1.20;;;17.00;98.70;;;;;;5034377;28;20467;-68
2022/07/27 07:32:28;;;;;;;4.97;1.10;;;17.20;99.90;;;;;;5057265;28;20040;-69
2022/07/27 07:34:55;;;;;;;5.22;1.50;;;17.00;94.80;;;;;;5059955;28;20057;-68
2022/07/27 07:37:21;;;;;;;4.43;0.70;;;17.10;99.90;;;;;;5063407;28;20364;-69
2022/07/27 07:39:46;;;;;;;4.28;0.88;;;17.20;93.80;;;;;;5062429;28;20131;-69
2022/07/27 07:42:12;;;;;;;7.05;1.10;;;17.50;94.70;;;;;;5038148;28;20344;-68
2022/07/27 07:44:38;;;;;;;12.25;1.42;;;17.90;92.90;;;;;;5040317;28;20054;-69
2022/07/27 07:47:05;;;;;;;5.45;1.20;;;18.00;91.10;;;;;;5064393;28;20032;-69
2022/07/27 07:49:31;;;;;;;6.22;1.27;;;18.30;87.50;;;;;;5050302;28;20068;-68
2022/07/27 07:51:56;;;;;;;5.25;1.25;;;18.10;68.90;;;;;;5036627;28;20499;-68
2022/07/27 07:54:22;;;;;;;7.13;1.27;;;18.00;76.60;;;;;;5057764;28;20067;-68
2022/07/27 07:56:48;;;;;;;5.60;1.30;;;18.00;77.30;;;;;;5037988;28;20064;-68
2022/07/27 07:59:14;;;;;;;5.68;1.30;;;18.10;74.70;;;;;;5063572;28;20437;-69
2022/07/27 08:01:39;;;;;;;6.10;0.90;;;17.90;69.90;;;;;;5032043;28;20050;-69
2022/07/27 08:04:05;;;;;;;5.78;1.00;;;18.20;71.80;;;;;;5046550;28;20328;-69
2022/07/27 08:06:31;;;;;;;3.72;0.82;;;18.50;66.00;;;;;;5039275;28;20494;-69
2022/07/27 08:08:57;;;;;;;10.10;1.58;;;18.60;76.50;;;;;;5044365;28;20037;-69
2022/07/27 08:11:23;;;;;;;6.75;1.30;;;18.90;64.90;;;;;;5061725;28;20055;-68
2022/07/27 08:13:49;;;;;;;5.57;1.20;;;18.90;64.00;;;;;;5039361;28;20047;-69
2022/07/27 08:16:15;;;;;;;10.20;2.20;;;19.20;62.10;;;;;;5062189;28;20044;-68
2022/07/27 08:18:41;;;;;;;4.07;1.10;;;18.90;63.30;;;;;;5031528;28;20052;-69
2022/07/27 08:21:07;;;;;;;4.57;1.10;;;18.50;50.70;;;;;;5055636;28;20108;-69
2022/07/27 08:23:41;;;;;;;6.68;0.85;;;18.10;69.10;;;;;;5052328;28;20208;-70
2022/07/27 08:26:06;;;;;;;4.30;0.85;;;17.80;66.30;;;;;;5057031;28;20048;-69
2022/07/27 08:28:32;;;;;;;4.88;1.02;;;17.60;74.30;;;;;;5059785;28;20119;-70
2022/07/27 08:30:58;;;;;;;10.15;1.35;;;17.40;76.20;;;;;;5030126;28;20090;-69
2022/07/27 08:33:24;;;;;;;5.57;1.08;;;17.20;70.60;;;;;;5063708;28;20135;-69
2022/07/27 08:35:49;;;;;;;4.78;1.10;;;17.10;70.60;;;;;;5049078;28;20047;-69
2022/07/27 08:38:15;;;;;;;3.03;1.00;;;17.10;72.30;;;;;;5042677;28;20951;-69
2022/07/27 08:40:41;;;;;;;6.15;1.08;;;17.10;73.60;;;;;;5064029;28;20835;-68
2022/07/27 08:43:07;;;;;;;5.88;1.17;;;17.20;69.40;;;;;;5032829;28;20398;-69
2022/07/27 08:45:34;;;;;;;4.22;0.70;;;17.40;73.30;;;;;;5051391;28;20036;-69
2022/07/27 08:48:01;;;;;;;2.17;0.65;;;17.70;51.60;;;;;;5061529;28;20044;-69
2022/07/27 08:50:29;;;;;;;3.22;0.73;;;17.90;45.90;;;;;;5041529;28;20052;-69
2022/07/27 08:53:03;;;;;;;3.47;0.68;;;18.30;52.80;;;;;;5042376;28;20084;-70
2022/07/27 08:55:34;;;;;;;7.45;1.10;;;18.50;53.00;;;;;;5048142;28;20048;-69
2022/07/27 08:58:00;;;;;;;2.70;0.98;;;18.70;17.70;;;;;;5043993;28;20079;-68
2022/07/27 09:00:27;;;;;;;5.63;0.68;;;18.60;32.70;;;;;;5050659;28;20044;-70
2022/07/27 09:02:54;;;;;;;3.03;0.80;;;18.30;27.10;;;;;;5023315;28;20044;-69
2022/07/27 09:05:20;;;;;;;4.00;0.80;;;18.00;43.20;;;;;;5065376;28;20090;-69
2022/07/27 09:07:47;;;;;;;5.93;0.80;;;18.00;34.00;;;;;;5046490;28;20537;-69
2022/07/27 09:10:29;;;;;;;6.32;0.70;;;17.80;43.60;;;;;;5062095;28;20105;-69
2022/07/27 09:12:54;;;;;;;4.45;1.08;;;17.80;53.50;;;;;;5058142;28;20089;-68
2022/07/27 09:15:20;;;;;;;5.82;0.80;;;17.70;46.90;;;;;;5045725;28;20044;-69
2022/07/27 09:17:46;;;;;;;2.67;0.85;;;17.90;55.40;;;;;;5030031;28;20102;-69
2022/07/27 09:20:17;;;;;;;4.85;0.98;;;18.10;53.30;;;;;;5047106;28;20124;-69
2022/07/27 09:22:51;;;;;;;4.57;0.85;;;18.40;45.90;;;;;;5054703;28;20056;-69
2022/07/27 09:25:19;;;;;;;2.25;0.65;;;18.50;26.60;;;;;;5047220;28;20045;-69
2022/07/27 09:27:47;;;;;;;4.03;0.70;;;18.70;43.30;;;;;;5035417;28;20056;-69
2022/07/27 09:30:16;;;;;;;3.58;0.75;;;18.80;42.60;;;;;;5064730;28;20351;-69
2022/07/27 09:33:01;;;;;;;3.67;0.80;;;18.60;27.90;;;;;;5063808;28;20056;-70
2022/07/27 09:35:34;;;;;;;3.88;1.00;;;18.40;36.70;;;;;;5043915;28;20049;-69
2022/07/27 09:38:22;;;;;;;2.72;0.68;;;18.40;48.40;;;;;;5065443;28;20132;-69
2022/07/27 09:41:17;;;;;;;6.72;0.88;;;18.60;33.00;;;;;;5047492;28;20052;-70
2022/07/27 09:43:48;;;;;;;3.50;0.68;;;18.50;53.10;;;;;;5038312;28;20059;-70
2022/07/27 09:46:15;;;;;;;4.55;0.75;;;18.60;23.20;;;;;;5046457;28;20056;-69
2022/07/27 09:48:41;;;;;;;2.08;0.60;;;18.70;39.70;;;;;;5031324;28;20875;-69
2022/07/27 09:51:10;;;;;;;4.80;0.88;;;18.80;29.10;;;;;;5047435;28;20049;-69
2022/07/27 09:53:36;;;;;;;3.28;0.90;;;19.00;42.40;;;;;;5065722;28;20045;-69
2022/07/27 09:56:09;;;;;;;2.45;0.80;;;19.00;36.50;;;;;;5047753;28;20048;-69
2022/07/27 09:58:49;;;;;;;4.88;1.02;;;18.90;26.40;;;;;;5051093;28;20045;-69
2022/07/27 10:01:21;;;;;;;4.13;0.93;;;19.00;50.30;;;;;;5043619;28;20102;-70
2022/07/27 10:03:49;;;;;;;3.60;1.00;;;18.90;29.30;;;;;;5043162;28;20677;-69
2022/07/27 10:06:15;;;;;;;2.45;0.82;;;18.90;28.50;;;;;;5047898;28;20033;-69
2022/07/27 10:08:44;;;;;;;2.97;0.70;;;18.90;26.00;;;;;;5047136;28;20437;-70
2022/07/27 10:11:11;;;;;;;4.45;1.10;;;18.90;37.10;;;;;;5055377;28;20111;-70
2022/07/27 10:13:37;;;;;;;4.50;0.60;;;18.80;49.30;;;;;;5054105;28;20053;-69
2022/07/27 10:16:05;;;;;;;5.53;0.93;;;18.90;43.90;;;;;;5046499;28;20380;-69
2022/07/27 10:18:36;;;;;;;2.20;0.80;;;18.70;36.20;;;;;;5046515;28;20038;-70
2022/07/27 10:21:07;;;;;;;5.88;0.73;;;18.60;33.20;;;;;;5028375;28;20055;-69
2022/07/27 10:23:36;;;;;;;1.80;0.82;;;18.70;52.20;;;;;;5028470;28;20087;-70
2022/07/27 10:26:19;;;;;;;2.83;0.90;;;18.70;51.90;;;;;;5032003;28;20052;-69
2022/07/27 10:28:51;;;;;;;3.08;0.80;;;18.60;29.60;;;;;;5042026;28;20420;-70
2022/07/27 10:31:25;;;;;;;2.05;0.82;;;18.80;41.80;;;;;;5056508;28;20553;-70
2022/07/27 10:33:54;;;;;;;3.22;0.93;;;18.90;43.90;;;;;;5059695;28;20084;-69
2022/07/27 10:36:22;;;;;;;4.93;0.70;;;18.90;23.30;;;;;;5050003;28;20075;-70
2022/07/27 10:38:55;;;;;;;2.38;0.80;;;18.80;25.20;;;;;;5044411;28;20048;-70
2022/07/27 10:41:22;;;;;;;4.65;0.90;;;19.00;36.00;;;;;;5040993;28;20110;-70
2022/07/27 10:43:50;;;;;;;2.53;0.73;;;19.20;36.30;;;;;;5061328;28;20056;-70
2022/07/27 10:46:20;;;;;;;5.20;0.40;;;19.20;27.00;;;;;;5036845;28;20037;-70
2022/07/27 10:48:46;;;;;;;3.22;0.90;;;19.20;22.30;;;;;;5039421;28;20036;-70
2022/07/27 10:51:13;;;;;;;3.53;1.13;;;19.00;15.70;;;;;;5037277;28;20043;-70
2022/07/27 10:53:40;;;;;;;4.82;0.90;;;18.70;18.60;;;;;;5032342;28;20052;-69
2022/07/27 10:56:08;;;;;;;4.20;1.20;;;18.60;36.80;;;;;;5062071;28;20576;-70
2022/07/27 10:58:34;;;;;;;1.20;0.63;;;18.80;49.40;;;;;;5047292;28;20045;-70
2022/07/27 11:01:02;;;;;;;8.98;1.10;;;18.90;33.10;;;;;;5049469;28;20058;-70
2022/07/27 11:03:38;;;;;;;2.97;0.80;;;18.80;31.10;;;;;;5056938;28;20128;-70
2022/07/27 11:06:17;;;;;;;5.15;0.70;;;18.70;31.20;;;;;;5035165;28;20483;-70
2022/07/27 11:08:46;;;;;;;0.98;0.60;;;18.60;36.50;;;;;;5057607;28;20513;-69
2022/07/27 11:11:18;;;;;;;5.00;1.00;;;18.40;44.60;;;;;;5063010;28;20103;-70
2022/07/27 11:13:45;;;;;;;2.53;0.82;;;18.40;52.90;;;;;;5058584;28;20094;-70
2022/07/27 11:16:14;;;;;;;3.05;0.90;;;18.40;56.00;;;;;;5049868;28;20037;-70
2022/07/27 11:18:42;;;;;;;6.00;1.30;;;18.30;56.80;;;;;;5048559;28;20060;-70
2022/07/27 11:21:27;;;;;;;3.90;0.80;;;18.40;57.00;;;;;;5043760;28;20539;-70
2022/07/27 11:23:56;;;;;;;6.13;0.90;;;18.50;57.80;;;;;;5053542;28;20487;-70
2022/07/27 11:26:24;;;;;;;2.75;0.70;;;18.70;60.90;;;;;;5032465;28;20094;-70
2022/07/27 11:28:51;;;;;;;4.10;0.90;;;18.90;48.90;;;;;;5046417;28;20046;-70
2022/07/27 11:31:17;;;;;;;1.88;0.77;;;18.90;53.60;;;;;;5067134;28;20045;-70
2022/07/27 11:33:52;;;;;;;9.73;1.00;;;18.70;53.30;;;;;;5044286;28;20195;-70
2022/07/27 11:36:19;;;;;;;4.40;0.88;;;18.60;66.10;;;;;;5032577;28;20498;-69
2022/07/27 11:38:53;;;;;;;2.95;0.77;;;18.50;63.30;;;;;;5053187;28;20036;-70
2022/07/27 11:41:31;;;;;;;3.05;1.10;;;18.50;69.70;;;;;;5048505;28;20048;-70
2022/07/27 11:44:05;;;;;;;2.17;0.88;;;18.30;67.00;;;;;;5055275;28;20387;-71
2022/07/27 11:46:33;;;;;;;3.35;0.85;;;18.10;70.50;;;;;;5066833;28;20115;-70
2022/07/27 11:49:06;;;;;;;4.35;0.88;;;18.30;79.00;;;;;;5067325;28;20041;-71
2022/07/27 11:51:40;;;;;;;5.53;1.10;;;18.60;70.50;;;;;;5037607;28;20067;-70
2022/07/27 11:54:09;;;;;;;6.32;1.30;;;18.90;63.80;;;;;;5031748;28;20045;-71
2022/07/27 11:56:37;;;;;;;5.30;1.13;;;19.00;66.30;;;;;;5035097;28;20052;-70
2022/07/27 11:59:15;;;;;;;4.13;0.77;;;19.20;74.60;;;;;;5046196;28;20101;-70
2022/07/27 12:01:53;;;;;;;3.75;0.80;;;19.10;49.20;;;;;;5063874;28;20045;-69
2022/07/27 12:04:26;;;;;;;2.35;0.70;;;18.70;48.80;;;;;;5048069;28;20032;-70
2022/07/27 12:07:09;;;;;;;2.20;0.63;;;18.30;57.80;;;;;;5050129;28;20045;-71
2022/07/27 12:09:51;;;;;;;3.42;0.70;;;18.10;51.00;;;;;;5051906;28;20101;-69
2022/07/27 12:12:20;;;;;;;4.85;0.90;;;18.10;59.40;;;;;;5033332;28;20059;-71
2022/07/27 12:14:49;;;;;;;4.15;0.88;;;18.10;63.90;;;;;;5049918;28;20103;-70
2022/07/27 12:17:20;;;;;;;5.85;0.98;;;18.10;57.90;;;;;;5058773;28;20069;-70
2022/07/27 12:19:51;;;;;;;3.05;1.00;;;18.00;60.10;;;;;;5043867;28;20049;-70
2022/07/27 12:22:38;;;;;;;3.08;0.95;;;17.90;56.00;;;;;;5046739;28;20049;-69
2022/07/27 12:25:28;;;;;;;4.05;1.08;;;17.80;64.10;;;;;;5036852;28;20517;-70
2022/07/27 12:27:56;;;;;;;5.15;1.23;;;17.70;61.10;;;;;;5016830;28;20048;-69
2022/07/27 12:30:38;;;;;;;5.30;1.35;;;17.70;73.70;;;;;;5042202;28;20049;-70
2022/07/27 12:33:06;;;;;;;4.88;0.95;;;17.80;75.40;;;;;;5059361;28;20357;-70
2022/07/27 12:35:41;;;;;;;5.53;1.20;;;18.00;73.30;;;;;;5048959;28;20036;-70
2022/07/27 12:38:08;;;;;;;2.67;0.80;;;18.10;63.10;;;;;;5048818;28;20044;-70
2022/07/27 12:40:45;;;;;;;5.75;1.55;;;18.20;59.20;;;;;;5049613;28;20119;-70
2022/07/27 12:43:16;;;;;;;6.72;1.10;;;18.10;65.50;;;;;;5048183;28;20087;-71
2022/07/27 12:45:42;;;;;;;2.58;1.05;;;18.30;74.40;;;;;;5049558;28;20129;-71
2022/07/27 12:48:19;;;;;;;3.00;0.90;;;18.50;59.90;;;;;;5047448;28;20079;-70
2022/07/27 12:50:47;;;;;;;5.03;1.02;;;18.50;62.40;;;;;;5049306;28;20056;-71